Time;durP1;ratioP1;P1;durP2;ratioP2;P2;SDS_P1;SDS_P2;PMS_P1;PMS_P2;Temp;Humidity;BMP_temperature;BMP_pressure;BME280_temperature;BME280_humidity;BME280_pressure;Samples;Min_cycle;Max_cycle;Signal;HPM_P1;HPM_P2
2022/06/13 00:01:58;;;;;;;8.40;3.47;;;15.20;82.00;;;;;;4994431;28;20031;-80
2022/06/13 00:04:24;;;;;;;12.15;3.38;;;15.10;82.30;;;;;;5010606;28;20022;-80
2022/06/13 00:06:49;;;;;;;9.80;3.28;;;15.10;82.70;;;;;;4994190;28;20027;-80
2022/06/13 00:09:15;;;;;;;14.90;4.38;;;15.10;83.20;;;;;;4994268;28;20081;-80
2022/06/13 00:11:41;;;;;;;11.23;3.75;;;15.10;84.00;;;;;;5010615;28;20375;-80
2022/06/13 00:14:07;;;;;;;9.35;3.17;;;15.00;83.60;;;;;;5010416;28;20454;-80
2022/06/13 00:16:33;;;;;;;8.32;3.38;;;15.00;83.80;;;;;;4995224;28;20085;-79
2022/06/13 00:18:59;;;;;;;10.13;3.55;;;15.00;84.20;;;;;;5010000;28;20026;-80
2022/06/13 00:21:31;;;;;;;10.70;3.42;;;15.00;84.50;;;;;;4993575;28;20386;-79
2022/06/13 00:23:58;;;;;;;10.02;4.05;;;14.90;84.60;;;;;;5010280;28;20018;-79
2022/06/13 00:26:26;;;;;;;15.32;3.88;;;14.90;84.80;;;;;;5010122;28;20127;-79
2022/06/13 00:28:52;;;;;;;11.85;3.95;;;14.90;85.10;;;;;;4995167;28;20023;-80
2022/06/13 00:31:18;;;;;;;13.38;4.80;;;14.90;85.30;;;;;;4993786;28;20113;-80
2022/06/13 00:33:44;;;;;;;12.88;4.07;;;14.90;85.70;;;;;;5009965;28;20030;-80
2022/06/13 00:36:11;;;;;;;10.65;4.28;;;14.80;86.10;;;;;;5010041;28;20030;-80
2022/06/13 00:38:37;;;;;;;13.80;4.18;;;14.80;86.30;;;;;;5009948;28;20018;-80
2022/06/13 00:41:10;;;;;;;14.75;4.68;;;14.80;86.60;;;;;;5009931;28;20026;-80
2022/06/13 00:43:38;;;;;;;11.43;4.60;;;14.80;86.90;;;;;;4994903;28;20105;-80
2022/06/13 00:46:20;;;;;;;13.07;5.32;;;14.80;87.20;;;;;;5009632;28;20375;-80
2022/06/13 00:48:46;;;;;;;13.20;4.43;;;14.80;87.30;;;;;;4994800;28;20045;-79
2022/06/13 00:51:11;;;;;;;9.23;4.45;;;14.80;87.20;;;;;;5009911;28;20023;-79
2022/06/13 00:53:37;;;;;;;12.73;4.18;;;14.70;87.30;;;;;;5009846;28;20038;-79
2022/06/13 00:56:08;;;;;;;13.93;4.57;;;14.80;87.60;;;;;;5009625;28;20030;-80
2022/06/13 00:58:38;;;;;;;12.63;4.10;;;14.70;87.80;;;;;;5009781;28;20034;-79
2022/06/13 01:01:04;;;;;;;13.98;4.30;;;14.70;88.00;;;;;;5009828;28;20421;-79
2022/06/13 01:03:32;;;;;;;13.68;3.97;;;14.70;88.20;;;;;;5009826;28;20038;-79
2022/06/13 01:06:01;;;;;;;12.75;3.80;;;14.80;88.50;;;;;;5009991;28;20116;-79
2022/06/13 01:08:30;;;;;;;10.65;3.97;;;14.70;88.70;;;;;;5009616;28;20102;-79
2022/06/13 01:11:18;;;;;;;12.32;3.95;;;14.70;88.80;;;;;;5009528;28;20025;-79
2022/06/13 01:14:22;;;;;;;10.75;3.78;;;14.70;89.00;;;;;;4993038;28;20073;-80
2022/06/13 01:17:24;;;;;;;11.10;3.83;;;14.70;89.20;;;;;;5009228;28;20567;-80
2022/06/13 01:20:07;;;;;;;14.50;4.57;;;14.70;89.40;;;;;;5009264;28;20041;-80
2022/06/13 01:23:20;;;;;;;12.40;3.80;;;14.70;89.40;;;;;;5009247;28;20026;-79
2022/06/13 01:26:23;;;;;;;12.82;4.22;;;14.80;89.70;;;;;;4953560;29;20031;-79
2022/06/13 01:29:10;;;;;;;12.82;3.97;;;14.80;89.80;;;;;;5009223;28;20473;-79
2022/06/13 01:32:21;;;;;;;9.18;3.33;;;14.80;89.80;;;;;;5009172;28;20037;-79
2022/06/13 01:34:55;;;;;;;11.40;3.83;;;14.80;90.00;;;;;;5009120;28;20030;-79
2022/06/13 01:37:34;;;;;;;14.07;3.67;;;14.80;90.00;;;;;;5008841;28;20113;-79
2022/06/13 01:40:03;;;;;;;13.05;4.32;;;14.80;90.10;;;;;;4994007;28;20038;-79
2022/06/13 01:42:41;;;;;;;11.77;4.28;;;14.80;90.20;;;;;;5009010;28;20081;-79
2022/06/13 01:45:28;;;;;;;13.75;3.90;;;14.80;90.30;;;;;;5009183;28;20037;-79
2022/06/13 01:47:59;;;;;;;12.55;4.72;;;14.80;90.30;;;;;;5009281;28;20050;-79
2022/06/13 01:50:41;;;;;;;13.20;4.70;;;14.80;90.40;;;;;;5008895;28;20478;-79
2022/06/13 01:53:23;;;;;;;8.90;3.90;;;14.80;90.50;;;;;;4993935;28;20034;-79
2022/06/13 01:56:08;;;;;;;12.30;4.13;;;14.80;90.50;;;;;;5008833;28;20385;-79
2022/06/13 01:58:57;;;;;;;9.70;3.38;;;14.90;90.60;;;;;;4992434;28;20509;-79
2022/06/13 02:01:34;;;;;;;12.63;4.45;;;14.90;90.70;;;;;;4992492;28;20026;-79
2022/06/13 02:04:15;;;;;;;11.80;4.30;;;14.90;90.70;;;;;;5008784;28;20040;-79
2022/06/13 02:06:46;;;;;;;13.13;5.30;;;14.90;90.80;;;;;;5008705;28;20034;-79
2022/06/13 02:09:15;;;;;;;12.10;5.07;;;14.90;90.90;;;;;;5008828;28;20108;-79
2022/06/13 02:11:47;;;;;;;12.63;4.85;;;14.90;91.10;;;;;;5008765;28;20023;-80
2022/06/13 02:14:19;;;;;;;20.15;5.85;;;14.90;91.20;;;;;;5008676;28;20033;-79
2022/06/13 02:16:51;;;;;;;13.00;4.82;;;15.00;91.20;;;;;;5009171;28;20085;-79
2022/06/13 02:19:26;;;;;;;15.38;5.05;;;15.00;91.30;;;;;;5008642;28;20058;-79
2022/06/13 02:22:00;;;;;;;16.00;5.75;;;15.00;91.30;;;;;;5009132;28;20022;-79
2022/06/13 02:24:38;;;;;;;13.63;5.75;;;15.00;91.30;;;;;;5008597;28;20034;-79
2022/06/13 02:27:06;;;;;;;11.25;4.63;;;15.10;91.30;;;;;;5012127;28;20029;-79
2022/06/13 02:29:47;;;;;;;13.52;5.22;;;15.10;91.30;;;;;;5011827;28;20026;-80
2022/06/13 02:32:31;;;;;;;19.02;5.45;;;15.10;91.50;;;;;;5011810;28;20116;-80
2022/06/13 02:35:17;;;;;;;15.45;5.60;;;15.10;91.40;;;;;;5011711;28;20401;-80
2022/06/13 02:37:49;;;;;;;18.27;5.30;;;15.10;91.40;;;;;;5011744;28;20022;-80
2022/06/13 02:40:45;;;;;;;14.23;5.88;;;15.10;91.40;;;;;;5011829;28;20504;-80
2022/06/13 02:43:20;;;;;;;12.23;4.90;;;15.20;91.50;;;;;;5013057;28;20022;-80
2022/06/13 02:46:06;;;;;;;16.67;4.57;;;15.20;91.60;;;;;;5015217;28;20516;-80
2022/06/13 02:48:58;;;;;;;12.77;4.85;;;15.20;91.60;;;;;;5015140;28;20025;-80
2022/06/13 02:51:30;;;;;;;12.98;5.13;;;15.20;91.50;;;;;;5009588;28;20363;-79
2022/06/13 02:54:00;;;;;;;12.98;4.57;;;15.20;91.50;;;;;;5015048;28;20112;-80
2022/06/13 03:00:01;;;;;;;15.98;5.65;;;15.10;91.50;;;;;;5016328;28;20092;-80
2022/06/13 03:02:55;;;;;;;14.15;5.65;;;15.10;91.50;;;;;;5015214;28;20018;-79
2022/06/13 03:05:42;;;;;;;14.88;5.60;;;15.10;91.50;;;;;;5031734;28;20034;-79
2022/06/13 03:08:42;;;;;;;14.35;5.72;;;15.10;91.60;;;;;;5014891;28;20030;-79
2022/06/13 03:11:08;;;;;;;13.90;5.93;;;15.00;91.60;;;;;;5016127;28;20463;-79
2022/06/13 03:13:45;;;;;;;11.43;5.50;;;15.00;91.60;;;;;;5016045;28;20029;-79
2022/06/13 03:16:29;;;;;;;17.33;5.88;;;14.90;91.70;;;;;;5016259;28;20469;-79
2022/06/13 03:19:06;;;;;;;14.68;5.20;;;14.90;91.80;;;;;;5014651;28;20484;-79
2022/06/13 03:21:41;;;;;;;14.10;5.68;;;14.90;91.90;;;;;;5014677;28;20026;-79
2022/06/13 03:24:38;;;;;;;12.73;5.80;;;14.80;91.90;;;;;;5015020;28;20026;-79
2022/06/13 03:27:12;;;;;;;12.18;5.32;;;14.80;92.10;;;;;;5031093;28;20061;-79
2022/06/13 03:29:47;;;;;;;12.88;6.72;;;14.80;92.20;;;;;;5014546;28;20478;-79
2022/06/13 03:32:17;;;;;;;16.67;6.32;;;14.80;92.20;;;;;;5014529;28;20030;-79
2022/06/13 03:34:49;;;;;;;14.15;6.07;;;14.70;92.30;;;;;;5015648;28;20030;-79
2022/06/13 03:37:22;;;;;;;16.52;7.10;;;14.70;92.40;;;;;;5015630;28;20113;-79
2022/06/13 03:39:53;;;;;;;15.57;7.53;;;14.70;92.50;;;;;;5014730;28;20057;-79
2022/06/13 03:42:26;;;;;;;14.18;7.25;;;14.70;92.60;;;;;;5014324;28;20516;-79
2022/06/13 03:45:16;;;;;;;18.45;7.25;;;14.70;93.00;;;;;;5014064;28;20541;-78
2022/06/13 03:47:52;;;;;;;17.88;7.32;;;14.70;92.70;;;;;;5015384;28;20022;-79
2022/06/13 03:50:31;;;;;;;12.30;6.72;;;14.70;92.80;;;;;;5013986;28;20022;-79
2022/06/13 03:53:20;;;;;;;14.25;6.13;;;14.70;92.80;;;;;;5014070;28;20029;-79
2022/06/13 03:55:57;;;;;;;12.85;6.70;;;14.70;92.90;;;;;;5014278;28;20125;-79
2022/06/13 03:58:36;;;;;;;13.15;6.63;;;14.70;92.90;;;;;;5014018;28;20048;-79
2022/06/13 04:01:25;;;;;;;17.35;6.75;;;14.80;93.00;;;;;;5014020;28;20022;-79
2022/06/13 04:03:51;;;;;;;17.55;7.00;;;14.80;93.10;;;;;;5030433;28;20117;-78
2022/06/13 04:06:34;;;;;;;13.63;6.70;;;14.80;93.20;;;;;;5015571;28;20497;-79
2022/06/13 04:09:02;;;;;;;13.95;7.47;;;14.80;93.20;;;;;;5013772;28;20025;-79
2022/06/13 04:11:38;;;;;;;13.57;6.20;;;14.80;93.20;;;;;;5013773;28;20018;-79
2022/06/13 04:14:35;;;;;;;13.85;6.75;;;14.80;93.30;;;;;;5014933;28;20100;-79
2022/06/13 04:17:15;;;;;;;15.50;6.57;;;14.80;93.40;;;;;;5014926;28;20425;-78
2022/06/13 04:19:44;;;;;;;18.55;7.47;;;14.80;93.40;;;;;;5013512;28;20055;-79
2022/06/13 04:22:47;;;;;;;14.10;7.05;;;14.80;93.70;;;;;;5014847;28;20045;-79
2022/06/13 04:25:50;;;;;;;14.50;6.97;;;14.80;93.40;;;;;;5011839;28;20037;-79
2022/06/13 04:28:37;;;;;;;15.55;7.03;;;14.80;93.40;;;;;;5013500;28;20026;-79
2022/06/13 04:31:07;;;;;;;15.13;7.13;;;14.80;93.40;;;;;;5026521;28;20045;-79
2022/06/13 04:33:41;;;;;;;14.25;7.28;;;14.80;93.40;;;;;;5014375;28;20018;-79
2022/06/13 04:36:10;;;;;;;18.27;7.72;;;14.80;93.50;;;;;;5004746;28;20034;-78
2022/06/13 04:38:39;;;;;;;11.45;6.70;;;14.80;93.60;;;;;;4981761;28;20046;-79
2022/06/13 04:41:05;;;;;;;17.30;7.45;;;14.90;93.60;;;;;;4998795;28;20034;-79
2022/06/13 04:43:35;;;;;;;16.60;7.30;;;14.80;93.70;;;;;;4993310;28;20035;-80
2022/06/13 04:46:11;;;;;;;15.00;6.85;;;14.90;93.70;;;;;;5008201;28;20022;-80
2022/06/13 04:48:39;;;;;;;12.38;7.10;;;14.90;93.80;;;;;;5013022;28;20022;-80
2022/06/13 04:51:12;;;;;;;15.82;7.70;;;14.90;93.70;;;;;;5012863;28;20049;-80
2022/06/13 04:54:06;;;;;;;22.45;8.15;;;14.90;93.80;;;;;;5013289;28;20026;-80
2022/06/13 04:56:33;;;;;;;17.80;6.72;;;15.00;93.80;;;;;;5013738;28;20033;-80
2022/06/13 04:59:00;;;;;;;16.27;7.43;;;15.00;93.80;;;;;;5012722;28;20401;-80
2022/06/13 05:01:33;;;;;;;13.95;7.07;;;15.00;93.90;;;;;;4994902;28;20040;-80
2022/06/13 05:04:05;;;;;;;16.08;7.18;;;15.10;94.00;;;;;;5013295;28;20040;-82
2022/06/13 05:06:38;;;;;;;15.55;6.72;;;15.10;94.00;;;;;;5013097;28;20474;-82
2022/06/13 05:09:06;;;;;;;16.48;7.32;;;15.20;94.00;;;;;;5010689;28;20544;-82
2022/06/13 05:11:39;;;;;;;13.40;6.82;;;15.20;94.10;;;;;;5013341;28;20112;-82
2022/06/13 05:14:12;;;;;;;17.27;7.03;;;15.20;94.20;;;;;;5012867;28;20022;-83
2022/06/13 05:17:05;;;;;;;16.05;7.28;;;15.30;94.30;;;;;;5011924;28;20022;-82
2022/06/13 05:19:45;;;;;;;14.85;6.90;;;15.40;94.30;;;;;;5014115;28;20041;-82
2022/06/13 05:22:43;;;;;;;13.85;7.72;;;15.40;94.30;;;;;;5012873;28;20389;-83
2022/06/13 05:25:35;;;;;;;16.98;7.15;;;15.50;94.40;;;;;;5012673;28;20033;-82
2022/06/13 05:28:01;;;;;;;18.20;6.70;;;15.50;94.40;;;;;;5013905;28;20441;-82
2022/06/13 05:30:27;;;;;;;21.92;7.30;;;15.50;94.30;;;;;;4994036;28;20050;-81
2022/06/13 05:32:54;;;;;;;19.10;6.88;;;15.50;94.40;;;;;;4994162;28;20437;-83
2022/06/13 05:35:27;;;;;;;17.35;6.50;;;15.60;94.40;;;;;;5012245;28;20038;-79
2022/06/13 05:37:54;;;;;;;17.23;7.28;;;15.70;94.50;;;;;;5012423;28;20022;-79
2022/06/13 05:40:21;;;;;;;13.85;6.05;;;15.70;94.50;;;;;;5012342;28;20497;-79
2022/06/13 05:42:47;;;;;;;17.42;7.15;;;15.80;94.50;;;;;;5012503;28;20137;-79
2022/06/13 05:45:14;;;;;;;17.35;6.97;;;15.80;94.40;;;;;;5012237;28;20521;-79
2022/06/13 05:47:41;;;;;;;14.63;6.57;;;15.80;94.30;;;;;;5013479;28;20022;-80
2022/06/13 05:50:17;;;;;;;16.58;5.88;;;15.80;94.30;;;;;;5013527;28;20018;-83
2022/06/13 05:52:43;;;;;;;18.45;6.25;;;15.90;94.20;;;;;;5012130;28;20363;-79
2022/06/13 05:55:10;;;;;;;14.52;5.63;;;15.90;94.00;;;;;;5012226;28;20072;-80
2022/06/13 05:57:37;;;;;;;17.25;6.13;;;15.90;94.00;;;;;;5012247;28;20054;-79
2022/06/13 06:00:04;;;;;;;16.17;6.05;;;15.90;93.90;;;;;;4995974;28;20036;-80
2022/06/13 06:02:29;;;;;;;16.33;5.80;;;16.00;93.80;;;;;;5012214;28;20117;-80
2022/06/13 06:04:55;;;;;;;17.63;6.40;;;16.00;93.60;;;;;;4993200;28;20122;-80
2022/06/13 06:07:20;;;;;;;16.08;5.25;;;16.00;93.60;;;;;;4992368;28;20035;-80
2022/06/13 06:09:46;;;;;;;11.75;4.85;;;16.00;93.50;;;;;;4976336;28;20026;-81
2022/06/13 06:12:12;;;;;;;13.57;4.38;;;16.00;93.50;;;;;;4976013;28;20494;-79
2022/06/13 06:14:37;;;;;;;14.65;5.05;;;16.00;93.40;;;;;;4982708;28;20109;-80
2022/06/13 06:17:03;;;;;;;11.50;4.63;;;16.10;93.40;;;;;;5011190;28;20073;-80
2022/06/13 06:19:29;;;;;;;14.23;4.47;;;16.10;93.30;;;;;;5015291;28;20378;-80
2022/06/13 06:21:55;;;;;;;11.52;3.30;;;16.20;93.30;;;;;;4999419;28;20033;-82
2022/06/13 06:24:21;;;;;;;13.18;4.30;;;16.30;93.20;;;;;;5015918;28;20030;-84
2022/06/13 06:26:46;;;;;;;9.23;2.72;;;16.30;93.10;;;;;;4999292;28;20493;-83
2022/06/13 06:29:12;;;;;;;12.23;2.95;;;16.30;92.80;;;;;;5017316;28;20022;-83
2022/06/13 06:31:38;;;;;;;9.20;2.22;;;16.40;92.60;;;;;;4999461;28;20030;-83
2022/06/13 06:34:04;;;;;;;12.20;2.55;;;16.50;92.30;;;;;;5015984;28;20149;-83
2022/06/13 06:36:29;;;;;;;6.25;2.00;;;16.60;92.00;;;;;;4999503;28;20041;-83
2022/06/13 06:38:56;;;;;;;9.05;1.83;;;16.70;91.60;;;;;;5016690;28;20033;-82
2022/06/13 06:41:21;;;;;;;9.13;1.70;;;16.70;91.30;;;;;;5016939;28;20029;-82
2022/06/13 06:43:47;;;;;;;5.72;1.52;;;16.80;91.00;;;;;;4999432;28;20037;-85
2022/06/13 06:46:14;;;;;;;6.13;1.30;;;16.90;90.80;;;;;;5016766;28;20481;-86
2022/06/13 06:48:40;;;;;;;9.02;1.80;;;17.00;90.40;;;;;;5016167;28;20046;-83
2022/06/13 06:51:08;;;;;;;9.63;1.95;;;17.00;90.10;;;;;;4999451;28;20029;-86
2022/06/13 06:59:53;;;;;;;9.35;2.17;;;17.10;89.70;;;;;;5016657;28;20381;-82
2022/06/13 07:01:48;;;;;;;6.10;1.50;;;17.30;88.30;;;;;;5016826;28;20061;-83
2022/06/13 07:04:14;;;;;;;7.90;1.92;;;17.40;87.80;;;;;;4998861;28;20478;-83
2022/06/13 07:06:40;;;;;;;9.10;2.28;;;17.40;87.40;;;;;;4998752;28;20037;-82
2022/06/13 07:09:06;;;;;;;10.18;2.08;;;17.40;86.70;;;;;;4999332;28;20061;-83
2022/06/13 07:14:17;;;;;;;6.97;1.85;;;17.40;85.70;;;;;;5001896;28;20029;-83
2022/06/13 07:16:43;;;;;;;13.15;1.88;;;17.40;85.50;;;;;;4998967;28;20030;-85
2022/06/13 07:19:08;;;;;;;10.00;2.30;;;17.50;85.10;;;;;;4998425;28;20121;-83
2022/06/13 07:21:34;;;;;;;10.45;2.03;;;17.50;84.70;;;;;;4998506;28;20092;-87
2022/06/13 07:24:00;;;;;;;6.75;1.50;;;17.60;84.60;;;;;;4982322;28;20033;-83
2022/06/13 07:26:26;;;;;;;7.53;1.60;;;17.70;84.20;;;;;;5014667;28;20543;-84
2022/06/13 07:28:52;;;;;;;11.27;2.30;;;17.70;83.60;;;;;;4998175;28;20367;-82
2022/06/13 07:31:20;;;;;;;6.25;1.40;;;17.70;82.40;;;;;;4982524;28;20022;-83
2022/06/13 07:33:48;;;;;;;7.47;1.27;;;17.60;82.40;;;;;;5016261;28;20022;-87
2022/06/13 07:36:15;;;;;;;8.05;1.58;;;17.70;82.20;;;;;;5015781;28;20113;-87
2022/06/13 07:38:40;;;;;;;8.68;1.70;;;17.70;81.80;;;;;;5014744;28;20392;-82
2022/06/13 07:41:06;;;;;;;8.98;1.48;;;17.70;81.40;;;;;;4983302;28;20037;-83
2022/06/13 07:43:36;;;;;;;5.93;1.23;;;17.70;81.10;;;;;;4999033;28;20083;-84
2022/06/13 07:46:05;;;;;;;7.22;1.10;;;17.80;79.80;;;;;;5015552;28;20389;-81
2022/06/13 07:48:32;;;;;;;5.25;1.15;;;17.80;79.60;;;;;;5014284;28;20026;-84
2022/06/13 07:50:59;;;;;;;7.40;1.10;;;17.70;79.00;;;;;;5014202;28;20424;-83
2022/06/13 07:53:25;;;;;;;4.50;1.05;;;17.80;78.70;;;;;;5014263;28;20068;-83
2022/06/13 07:55:50;;;;;;;3.67;0.80;;;17.80;78.30;;;;;;5015594;28;20026;-84
2022/06/13 07:58:27;;;;;;;6.70;0.75;;;17.80;78.00;;;;;;4997778;28;20049;-82
2022/06/13 08:00:53;;;;;;;3.58;0.90;;;17.90;77.70;;;;;;5015365;28;20021;-82
2022/06/13 08:03:27;;;;;;;5.72;0.68;;;17.90;77.40;;;;;;4981859;28;20034;-86
2022/06/13 08:05:53;;;;;;;2.47;0.50;;;18.00;77.10;;;;;;5015560;28;20026;-82
2022/06/13 08:08:18;;;;;;;4.93;0.60;;;18.00;76.80;;;;;;4997848;28;20030;-82
2022/06/13 08:10:46;;;;;;;5.55;0.68;;;18.10;76.50;;;;;;4997806;28;20034;-80
2022/06/13 08:13:17;;;;;;;3.60;0.75;;;18.10;76.00;;;;;;5014301;28;20018;-82
2022/06/13 08:15:43;;;;;;;4.72;0.57;;;18.20;75.50;;;;;;5015229;28;20026;-87
2022/06/13 08:18:14;;;;;;;3.15;0.50;;;18.20;74.90;;;;;;5013932;28;20022;-83
2022/06/13 08:20:42;;;;;;;3.63;0.50;;;18.30;74.30;;;;;;5013841;28;20121;-85
2022/06/13 08:23:10;;;;;;;2.22;0.40;;;18.40;73.60;;;;;;5013799;28;20030;-86
2022/06/13 08:25:38;;;;;;;4.65;0.70;;;18.40;73.90;;;;;;5013757;28;20022;-86
2022/06/13 08:28:04;;;;;;;6.07;0.70;;;18.50;73.00;;;;;;5013946;28;20018;-84
2022/06/13 08:30:40;;;;;;;2.53;0.45;;;18.50;72.90;;;;;;5014835;28;20029;-83
2022/06/13 08:33:06;;;;;;;2.92;0.50;;;18.60;72.70;;;;;;5013568;28;20168;-84
2022/06/13 08:35:31;;;;;;;3.90;0.57;;;18.60;73.20;;;;;;5014648;28;20057;-83
2022/06/13 08:37:57;;;;;;;5.53;0.45;;;18.60;72.30;;;;;;5014748;28;20382;-85
2022/06/13 08:40:31;;;;;;;2.47;0.30;;;18.70;71.80;;;;;;5012840;28;20034;-83
2022/06/13 08:43:04;;;;;;;6.25;0.63;;;18.70;70.80;;;;;;5013413;28;20022;-86
2022/06/13 08:45:40;;;;;;;3.67;0.87;;;18.70;69.80;;;;;;5013437;28;20025;-81
2022/06/13 08:48:38;;;;;;;2.28;0.45;;;18.60;69.90;;;;;;5013262;28;20032;-82
2022/06/13 08:51:11;;;;;;;4.63;0.75;;;18.60;69.30;;;;;;5006314;28;20029;-82
2022/06/13 08:53:57;;;;;;;4.68;0.80;;;18.60;69.00;;;;;;5013167;28;20018;-83
2022/06/13 08:56:29;;;;;;;2.72;0.45;;;18.70;69.00;;;;;;4996822;28;20485;-81
2022/06/13 08:59:24;;;;;;;3.47;0.70;;;18.70;69.20;;;;;;5012892;28;20429;-84
2022/06/13 09:02:00;;;;;;;3.88;0.55;;;18.80;69.30;;;;;;5013071;28;20470;-83
2022/06/13 09:04:51;;;;;;;6.40;0.75;;;18.80;69.30;;;;;;5014296;28;20110;-87
2022/06/13 09:07:45;;;;;;;7.03;0.57;;;18.80;69.10;;;;;;5012889;28;20030;-82
2022/06/13 09:10:31;;;;;;;4.47;0.50;;;18.90;68.90;;;;;;5012894;28;20021;-87
2022/06/13 09:13:12;;;;;;;2.28;0.50;;;18.90;69.10;;;;;;5012978;28;20056;-82
2022/06/13 09:15:47;;;;;;;5.50;0.60;;;19.00;69.30;;;;;;5012962;28;20036;-83
2022/06/13 09:18:38;;;;;;;3.50;0.82;;;19.00;69.20;;;;;;5013465;28;20025;-84
2022/06/13 09:21:14;;;;;;;1.90;0.47;;;19.00;68.90;;;;;;5013003;28;20128;-82
2022/06/13 09:23:56;;;;;;;2.25;0.50;;;19.20;68.60;;;;;;5014464;28;20030;-83
2022/06/13 09:26:38;;;;;;;6.57;0.50;;;19.20;67.90;;;;;;5012673;28;20018;-82
2022/06/13 09:29:14;;;;;;;4.35;0.70;;;19.10;67.70;;;;;;5012745;28;20078;-83
2022/06/13 09:32:04;;;;;;;4.82;0.60;;;19.20;67.80;;;;;;5013093;28;20572;-83
2022/06/13 09:34:32;;;;;;;4.88;1.13;;;19.20;67.80;;;;;;5013898;28;20033;-83
2022/06/13 09:37:07;;;;;;;3.85;0.80;;;19.20;67.80;;;;;;5012702;28;20037;-84
2022/06/13 09:39:33;;;;;;;2.53;0.50;;;19.20;67.90;;;;;;5013130;28;20056;-83
2022/06/13 09:42:15;;;;;;;4.15;0.75;;;19.30;67.90;;;;;;4980542;28;20030;-84
2022/06/13 09:45:00;;;;;;;5.45;0.55;;;19.40;67.80;;;;;;5014099;28;20057;-85
2022/06/13 09:47:48;;;;;;;3.67;0.60;;;19.50;67.30;;;;;;5013788;28;20030;-84
2022/06/13 09:50:19;;;;;;;7.35;0.75;;;19.50;66.80;;;;;;5012511;28;20559;-85
2022/06/13 09:53:10;;;;;;;3.45;0.50;;;19.50;66.40;;;;;;5013213;28;20030;-87
2022/06/13 09:56:06;;;;;;;5.43;0.47;;;19.50;66.30;;;;;;5016486;28;20026;-84
2022/06/13 09:59:03;;;;;;;2.72;0.70;;;19.50;66.40;;;;;;4992133;28;20514;-85
2022/06/13 10:01:59;;;;;;;4.97;0.60;;;19.50;66.30;;;;;;5018018;28;20037;-82
2022/06/13 10:04:48;;;;;;;3.08;0.40;;;19.50;66.20;;;;;;5017494;28;20026;-84
2022/06/13 10:07:19;;;;;;;3.72;0.70;;;19.60;66.00;;;;;;5015990;28;20128;-85
2022/06/13 10:10:24;;;;;;;3.05;0.40;;;19.60;65.40;;;;;;5016013;28;20025;-84
2022/06/13 10:13:15;;;;;;;1.70;0.40;;;19.50;64.30;;;;;;5015929;28;20026;-83
2022/06/13 10:16:05;;;;;;;3.28;0.50;;;19.50;64.20;;;;;;5016073;28;20489;-84
2022/06/13 10:18:45;;;;;;;3.25;0.30;;;19.50;64.10;;;;;;5015937;28;20041;-82
2022/06/13 10:21:27;;;;;;;1.85;0.20;;;19.50;64.10;;;;;;5015997;28;20080;-84
2022/06/13 10:24:08;;;;;;;4.00;0.40;;;19.50;63.80;;;;;;5017160;28;20029;-86
2022/06/13 10:26:49;;;;;;;1.98;0.30;;;19.50;63.40;;;;;;5016966;28;20025;-82
2022/06/13 10:29:53;;;;;;;4.22;0.40;;;19.60;63.40;;;;;;5003481;28;20030;-83
2022/06/13 10:32:43;;;;;;;4.28;0.40;;;19.60;63.20;;;;;;4995965;28;20057;-83
2022/06/13 10:35:28;;;;;;;2.25;0.50;;;19.60;62.90;;;;;;4997463;28;20026;-86
2022/06/13 10:38:15;;;;;;;1.70;0.30;;;19.70;63.10;;;;;;4995994;28;20030;-84
2022/06/13 10:40:41;;;;;;;2.83;0.55;;;19.70;63.10;;;;;;4996270;28;20027;-84
2022/06/13 10:43:07;;;;;;;3.25;0.50;;;19.70;63.20;;;;;;4980194;28;20030;-82
2022/06/13 10:45:35;;;;;;;7.20;0.50;;;19.80;63.10;;;;;;4980022;28;20073;-83
2022/06/13 10:48:05;;;;;;;3.08;0.40;;;19.80;63.10;;;;;;4996007;28;20023;-82
2022/06/13 10:50:46;;;;;;;3.97;0.50;;;19.90;62.90;;;;;;4997131;28;20034;-82
2022/06/13 10:53:25;;;;;;;4.00;0.40;;;20.00;62.40;;;;;;4995870;28;20025;-82
2022/06/13 10:55:53;;;;;;;2.20;0.40;;;20.00;62.20;;;;;;4997406;28;20034;-82
2022/06/13 10:58:26;;;;;;;3.60;0.32;;;20.00;62.00;;;;;;4995668;28;20042;-83
2022/06/13 11:01:22;;;;;;;8.18;0.70;;;20.00;61.70;;;;;;4995885;28;20398;-82
2022/06/13 11:04:28;;;;;;;2.70;0.40;;;19.90;61.70;;;;;;4970334;28;20042;-82
2022/06/13 11:06:57;;;;;;;3.70;0.40;;;19.90;61.90;;;;;;4921185;29;20043;-84
2022/06/13 11:09:35;;;;;;;4.93;0.45;;;20.10;61.90;;;;;;4921003;29;20038;-82
2022/06/13 11:12:04;;;;;;;1.38;0.30;;;20.20;61.10;;;;;;4970992;28;20112;-83
2022/06/13 11:14:35;;;;;;;2.60;0.30;;;20.30;60.70;;;;;;4995554;28;20025;-84
2022/06/13 11:22:37;;;;;;;4.22;0.45;;;20.60;59.50;;;;;;4996932;28;20037;-83
2022/06/13 11:25:12;;;;;;;3.28;0.40;;;20.70;58.90;;;;;;4995223;28;20018;-84
2022/06/13 11:27:40;;;;;;;2.17;0.30;;;20.90;58.40;;;;;;4995177;28;20018;-83
2022/06/13 11:30:30;;;;;;;3.53;0.47;;;21.10;58.20;;;;;;4979114;28;20026;-85
2022/06/13 11:33:05;;;;;;;2.80;0.40;;;21.40;57.40;;;;;;4995162;28;20057;-85
2022/06/13 11:35:48;;;;;;;5.78;0.50;;;21.40;56.90;;;;;;4995184;28;20030;-84
2022/06/13 11:38:24;;;;;;;2.53;0.40;;;21.40;56.60;;;;;;4995003;28;20386;-86
2022/06/13 11:41:19;;;;;;;1.95;0.40;;;21.30;56.50;;;;;;4995022;28;20028;-84
2022/06/13 11:44:07;;;;;;;5.63;0.50;;;21.20;56.50;;;;;;4995030;28;20030;-84
2022/06/13 11:46:41;;;;;;;1.88;0.30;;;21.10;56.60;;;;;;4994915;28;20034;-87
2022/06/13 11:49:16;;;;;;;1.75;0.30;;;21.20;56.80;;;;;;4994952;28;20033;-83
2022/06/13 11:51:51;;;;;;;3.97;0.40;;;21.30;56.70;;;;;;4994690;28;20031;-85
2022/06/13 11:54:48;;;;;;;2.35;0.30;;;21.40;56.70;;;;;;4995266;28;20029;-83
2022/06/13 11:57:14;;;;;;;3.10;0.30;;;21.70;55.80;;;;;;4995944;28;20026;-86
2022/06/13 12:00:20;;;;;;;4.05;0.40;;;21.80;55.40;;;;;;4996435;28;20080;-83
2022/06/13 12:02:49;;;;;;;2.70;0.32;;;21.90;54.40;;;;;;4994745;28;20028;-83
2022/06/13 12:05:22;;;;;;;1.77;0.35;;;22.10;54.30;;;;;;4994606;28;20031;-85
2022/06/13 12:07:53;;;;;;;;;;;22.30;54.00;;;;;;4995287;28;20022;-87
2022/06/13 12:10:22;;;;;;;2.85;0.38;;;22.50;53.90;;;;;;4994587;28;19913;-84
2022/06/13 12:12:48;;;;;;;1.38;0.20;;;22.60;54.10;;;;;;4995857;28;20026;-84
2022/06/13 12:15:15;;;;;;;2.97;0.35;;;22.70;53.80;;;;;;4977602;28;20033;-87
2022/06/13 12:17:57;;;;;;;1.58;0.30;;;22.80;53.00;;;;;;4978025;28;20125;-87
2022/06/13 12:20:46;;;;;;;1.15;0.30;;;22.80;52.70;;;;;;4994394;28;20018;-84
2022/06/13 12:23:20;;;;;;;2.38;0.50;;;23.00;52.10;;;;;;4994272;28;20022;-85
2022/06/13 12:26:18;;;;;;;1.63;0.32;;;23.20;52.00;;;;;;4994201;28;20386;-82
2022/06/13 12:29:00;;;;;;;1.50;0.20;;;23.50;50.90;;;;;;4985964;28;20030;-85
2022/06/13 12:31:33;;;;;;;2.05;0.35;;;23.80;50.00;;;;;;4994290;28;20053;-86
2022/06/13 12:34:13;;;;;;;1.92;0.30;;;24.10;49.00;;;;;;4995015;28;20041;-88
2022/06/13 12:36:39;;;;;;;1.75;0.30;;;24.30;48.70;;;;;;4994945;28;20027;-82
2022/06/13 12:39:07;;;;;;;2.47;0.30;;;24.60;48.70;;;;;;4995275;28;20426;-86
2022/06/13 12:41:42;;;;;;;1.77;0.28;;;24.70;48.20;;;;;;4995020;28;20080;-84
2022/06/13 12:44:16;;;;;;;0.85;0.20;;;24.70;47.80;;;;;;4994000;28;20081;-87
2022/06/13 12:46:50;;;;;;;3.47;0.32;;;24.80;47.50;;;;;;4993943;28;20069;-84
2022/06/13 12:49:34;;;;;;;;;;;24.90;47.20;;;;;;4994500;28;20088;-86
2022/06/13 12:52:17;;;;;;;1.58;0.20;;;25.20;47.20;;;;;;5010293;28;19905;-87
2022/06/13 12:54:50;;;;;;;1.83;0.30;;;25.50;47.30;;;;;;4993952;28;20470;-87
2022/06/13 12:57:22;;;;;;;;;;;25.80;46.30;;;;;;4995020;28;20056;-84
2022/06/13 13:00:03;;;;;;;1.83;0.40;;;25.90;45.80;;;;;;4994438;28;19928;-82
2022/06/13 13:02:35;;;;;;;2.97;0.30;;;25.80;46.00;;;;;;4994619;28;20022;-83
2022/06/13 13:05:24;;;;;;;5.57;0.50;;;25.70;46.00;;;;;;4993816;28;20054;-85
2022/06/13 13:08:05;;;;;;;1.70;0.30;;;25.70;46.20;;;;;;4993743;28;20121;-84
2022/06/13 13:11:03;;;;;;;2.75;0.35;;;25.70;46.40;;;;;;4993991;28;20433;-84
2022/06/13 13:13:32;;;;;;;2.17;0.47;;;25.60;46.30;;;;;;4993570;28;20502;-82
2022/06/13 13:16:31;;;;;;;4.50;0.40;;;25.40;46.40;;;;;;4994133;28;20034;-83
2022/06/13 13:19:06;;;;;;;3.22;0.60;;;25.30;46.20;;;;;;4993587;28;20478;-85
2022/06/13 13:21:46;;;;;;;3.38;0.50;;;25.40;46.50;;;;;;4993651;28;20034;-82
2022/06/13 13:24:40;;;;;;;2.78;0.50;;;25.60;46.30;;;;;;4993681;28;20026;-83
2022/06/13 13:27:10;;;;;;;4.63;0.40;;;25.80;45.70;;;;;;4994408;28;20073;-88
2022/06/13 13:29:54;;;;;;;3.25;0.60;;;25.80;45.70;;;;;;4994985;28;20133;-86
2022/06/13 13:32:22;;;;;;;5.30;0.50;;;25.90;45.90;;;;;;4993471;28;20019;-85
2022/06/13 13:34:57;;;;;;;3.15;0.40;;;26.10;46.00;;;;;;4993634;28;20457;-87
2022/06/13 13:37:34;;;;;;;3.83;0.40;;;26.20;45.30;;;;;;4993501;28;20029;-87
2022/06/13 13:40:20;;;;;;;5.15;0.43;;;26.30;44.90;;;;;;4993634;28;20033;-85
2022/06/13 13:43:05;;;;;;;2.78;0.30;;;26.60;43.90;;;;;;4994785;28;20053;-83
2022/06/13 13:45:39;;;;;;;3.55;0.35;;;26.90;43.80;;;;;;4993996;28;20065;-88